createdAt,value
2019-02-02T00:00:54.219Z,4.70
2019-02-02T00:03:42.316Z,5.53
2019-02-02T00:06:30.401Z,5.57
2019-02-02T00:09:18.421Z,5.13
2019-02-02T00:12:06.446Z,5.30
2019-02-02T00:14:54.461Z,4.60
2019-02-02T00:17:42.593Z,5.10
2019-02-02T00:20:31.036Z,4.13
2019-02-02T00:23:19.166Z,3.70
2019-02-02T00:26:07.398Z,3.20
2019-02-02T00:28:55.486Z,3.90
2019-02-02T00:31:43.513Z,2.87
2019-02-02T00:34:31.537Z,2.93
2019-02-02T00:37:19.611Z,3.10
2019-02-02T00:40:07.963Z,3.27
2019-02-02T00:42:56.031Z,3.67
2019-02-02T00:45:44.186Z,3.30
2019-02-02T00:48:32.262Z,3.65
2019-02-02T00:51:20.358Z,3.20
2019-02-02T00:54:08.393Z,3.30
2019-02-02T00:56:56.403Z,3.73
2019-02-02T00:59:44.504Z,3.77
2019-02-02T01:02:32.643Z,3.47
2019-02-02T01:05:20.763Z,3.70
2019-02-02T01:08:08.890Z,3.90
2019-02-02T01:10:56.909Z,3.47
2019-02-02T01:13:37.610Z,4.07
2019-02-02T01:16:18.301Z,6.30
2019-02-02T01:18:59.110Z,4.30
2019-02-02T01:21:39.728Z,4.07
2019-02-02T01:24:21.564Z,4.60
2019-02-02T01:27:02.228Z,3.63
2019-02-02T01:29:43.369Z,4.03
2019-02-02T01:32:25.125Z,4.03
2019-02-02T01:35:05.748Z,3.50
2019-02-02T01:37:46.374Z,3.60
2019-02-02T01:40:27.116Z,3.47
2019-02-02T01:43:07.826Z,3.63
2019-02-02T01:45:51.534Z,3.30
2019-02-02T01:48:32.787Z,3.40
2019-02-02T01:51:13.301Z,3.47
2019-02-02T01:56:35.599Z,3.87
2019-02-02T01:59:16.122Z,3.60
2019-02-02T02:01:56.769Z,4.07
2019-02-02T02:04:37.556Z,3.77
2019-02-02T02:07:18.151Z,4.30
2019-02-02T02:09:58.452Z,4.23
2019-02-02T02:12:39.202Z,4.93
2019-02-02T02:15:19.975Z,4.10
2019-02-02T02:18:00.726Z,5.00
2019-02-02T02:20:41.869Z,4.43
2019-02-02T02:23:22.909Z,4.47
2019-02-02T02:26:03.718Z,5.40
2019-02-02T02:28:44.604Z,5.10
2019-02-02T02:31:25.381Z,4.30
2019-02-02T02:34:06.299Z,4.93
2019-02-02T02:36:46.901Z,5.07
2019-02-02T02:39:27.570Z,5.13
2019-02-02T02:42:07.959Z,5.10
2019-02-02T02:44:48.920Z,3.80
2019-02-02T02:47:29.485Z,4.20
2019-02-02T02:50:09.896Z,4.93
2019-02-02T02:52:50.410Z,3.90
2019-02-02T02:55:31.079Z,4.53
2019-02-02T02:58:11.739Z,4.33
2019-02-02T03:00:52.281Z,4.70
2019-02-02T03:03:35.243Z,4.63
2019-02-02T03:06:14.319Z,5.77
2019-02-02T03:09:02.393Z,5.90
2019-02-02T03:11:50.574Z,6.00
2019-02-02T03:14:38.609Z,6.47
2019-02-02T03:17:26.607Z,6.20
2019-02-02T03:20:14.812Z,6.37
2019-02-02T03:23:02.833Z,5.67
2019-02-02T03:25:50.848Z,6.83
2019-02-02T03:28:38.904Z,6.30
2019-02-02T03:31:26.896Z,5.60
2019-02-02T03:34:14.970Z,6.80
2019-02-02T03:37:03.005Z,7.30
2019-02-02T03:39:51.264Z,6.53
2019-02-02T03:42:39.425Z,6.77
2019-02-02T03:45:27.525Z,7.13
2019-02-02T03:48:15.548Z,7.37
2019-02-02T03:51:03.712Z,7.53
2019-02-02T03:53:51.743Z,6.70
2019-02-02T03:56:39.781Z,6.63
2019-02-02T03:59:27.924Z,7.23
2019-02-02T04:02:16.029Z,6.67
2019-02-02T04:05:04.779Z,6.50
2019-02-02T04:07:52.980Z,7.10
2019-02-02T04:10:40.975Z,7.47
2019-02-02T04:13:22.040Z,8.63
2019-02-02T04:16:02.723Z,9.23
2019-02-02T04:18:43.326Z,10.00
2019-02-02T04:21:24.147Z,9.90
2019-02-02T04:24:04.837Z,8.37
2019-02-02T04:26:45.639Z,8.93
2019-02-02T04:29:26.060Z,8.77
2019-02-02T04:32:06.746Z,9.17
2019-02-02T04:34:49.165Z,10.93
2019-02-02T04:37:30.273Z,9.33
2019-02-02T04:40:10.979Z,9.03
2019-02-02T04:42:51.654Z,9.57
2019-02-02T04:45:32.620Z,8.47
2019-02-02T04:48:13.229Z,9.70
2019-02-02T04:50:54.189Z,8.70
2019-02-02T04:53:34.875Z,8.73
2019-02-02T04:56:15.526Z,8.40
2019-02-02T04:58:56.207Z,8.47
2019-02-02T05:01:37.131Z,7.83
2019-02-02T05:04:18.555Z,7.97
2019-02-02T05:06:59.069Z,7.53
2019-02-02T05:09:39.503Z,8.10
2019-02-02T05:12:19.982Z,8.80
2019-02-02T05:15:00.440Z,9.53
2019-02-02T05:17:40.839Z,9.10
2019-02-02T05:20:21.501Z,10.73
2019-02-02T05:23:02.152Z,13.03
2019-02-02T05:25:42.666Z,11.50
2019-02-02T05:28:21.811Z,10.70
2019-02-02T05:31:09.816Z,11.13
2019-02-02T05:33:57.828Z,11.70
2019-02-02T05:36:45.928Z,11.60
2019-02-02T05:39:33.937Z,12.53
2019-02-02T05:42:21.959Z,12.50
2019-02-02T05:45:10.713Z,12.10
2019-02-02T05:47:58.796Z,14.57
2019-02-02T05:50:46.837Z,15.90
2019-02-02T05:53:34.930Z,13.20
2019-02-02T05:56:22.932Z,11.97
2019-02-02T05:59:11.004Z,17.87
2019-02-02T06:01:59.039Z,18.53
2019-02-02T06:04:47.035Z,16.40
2019-02-02T06:07:35.061Z,16.77
2019-02-02T06:10:42.233Z,17.63
2019-02-02T06:13:22.997Z,14.70
2019-02-02T06:16:03.696Z,16.60
2019-02-02T06:18:44.447Z,19.40
2019-02-02T06:21:25.120Z,20.73
2019-02-02T06:24:06.005Z,21.97
2019-02-02T06:26:46.732Z,23.60
2019-02-02T06:29:27.339Z,22.73
2019-02-02T06:32:11.968Z,24.83
2019-02-02T06:34:50.418Z,19.97
2019-02-02T06:37:34.705Z,22.50
2019-02-02T06:40:16.706Z,25.67
2019-02-02T06:42:58.021Z,24.13
2019-02-02T06:45:39.461Z,22.00
2019-02-02T06:53:55.466Z,22.83
2019-02-02T06:56:37.562Z,24.57
2019-02-02T06:59:18.992Z,22.50
2019-02-02T07:02:19.378Z,20.80
2019-02-02T07:07:45.620Z,18.53
2019-02-02T07:10:26.075Z,18.47
2019-02-02T07:13:06.844Z,20.67
2019-02-02T07:15:48.037Z,20.07
2019-02-02T07:18:29.501Z,18.23
2019-02-02T07:21:13.667Z,19.47
2019-02-02T07:23:54.921Z,19.53
2019-02-02T07:26:36.353Z,17.13
2019-02-02T07:29:19.699Z,16.43
2019-02-02T07:49:38.682Z,15.88
2019-02-02T07:52:19.101Z,16.40
2019-02-02T07:55:02.783Z,16.02
2019-02-02T07:57:43.563Z,13.20
2019-02-02T08:00:24.340Z,15.60
2019-02-02T08:03:05.181Z,17.42
2019-02-02T08:05:45.949Z,15.60
2019-02-02T08:08:26.726Z,17.50
2019-02-02T08:11:07.280Z,18.82
2019-02-02T08:13:48.361Z,19.53
2019-02-02T08:16:29.174Z,18.20
2019-02-02T08:19:10.773Z,19.10
2019-02-02T08:21:51.913Z,16.97
2019-02-02T08:24:33.425Z,18.97
2019-02-02T08:27:14.506Z,17.63
2019-02-02T08:32:39.459Z,16.77
2019-02-02T08:35:20.828Z,17.03
2019-02-02T08:38:03.003Z,18.00
2019-02-02T08:40:44.903Z,17.70
2019-02-02T08:43:29.659Z,18.57
2019-02-02T08:46:11.224Z,18.23
2019-02-02T08:48:53.224Z,18.20
2019-02-02T08:51:33.600Z,17.57
2019-02-02T08:54:14.223Z,19.07
2019-02-02T09:14:29.405Z,16.30
2019-02-02T09:56:44.872Z,81.40
2019-02-02T09:59:45.959Z,106.70
2019-02-02T10:05:52.847Z,128.80
2019-02-02T19:18:46.506Z,17.30
2019-02-02T20:23:10.072Z,33.23
2019-02-02T20:25:50.700Z,27.45
2019-02-02T20:35:05.812Z,36.80
2019-02-02T20:40:33.965Z,34.98
2019-02-02T20:49:15.504Z,39.15
2019-02-02T20:51:56.257Z,32.03
2019-02-02T20:54:37.386Z,37.25
2019-02-02T20:57:18.061Z,48.25
2019-02-02T20:59:59.953Z,54.75
2019-02-02T21:02:41.174Z,44.18
2019-02-02T21:05:22.069Z,54.42
2019-02-02T21:10:59.382Z,31.23
2019-02-02T21:13:40.604Z,32.55
2019-02-02T21:16:28.836Z,43.73
2019-02-02T21:19:11.817Z,53.45
2019-02-02T21:21:54.999Z,46.90
2019-02-02T21:25:02.938Z,46.35
2019-02-02T21:28:07.617Z,54.58
2019-02-02T21:31:08.802Z,47.95
2019-02-02T21:37:15.117Z,44.35
2019-02-02T21:42:40.117Z,44.50
2019-02-02T21:53:56.176Z,42.25
2019-02-02T22:20:24.826Z,40.48
2019-02-02T23:44:20.720Z,37.73
2019-02-02T23:49:50.478Z,40.28
